Time;durP1;ratioP1;P1;durP2;ratioP2;P2;SDS_P1;SDS_P2;PMS_P1;PMS_P2;Temp;Humidity;BMP_temperature;BMP_pressure;BME280_temperature;BME280_humidity;BME280_pressure;Samples;Min_cycle;Max_cycle;Signal;HPM_P1;HPM_P2
2022/01/31 00:00:17;;;;;;;17.65;7.60;;;;;;;1.90;100.00;96681.78;5043195;28;20065;-59
2022/01/31 00:02:47;;;;;;;14.73;7.15;;;;;;;2.07;100.00;96680.00;5042640;28;20040;-58
2022/01/31 00:05:18;;;;;;;14.25;7.82;;;;;;;2.02;100.00;96677.66;5063225;28;20072;-62
2022/01/31 00:07:47;;;;;;;14.27;7.47;;;;;;;2.25;100.00;96662.50;5063051;28;20056;-61
2022/01/31 00:10:25;;;;;;;17.48;7.82;;;;;;;2.05;100.00;96661.88;5060541;28;20478;-61
2022/01/31 00:12:59;;;;;;;17.95;7.93;;;;;;;1.90;100.00;96654.94;5059670;28;20067;-63
2022/01/31 00:15:27;;;;;;;14.60;7.15;;;;;;;2.04;100.00;96647.19;5060552;28;20553;-61
2022/01/31 00:17:56;;;;;;;16.02;7.28;;;;;;;2.09;100.00;96639.13;5061905;28;20060;-62
2022/01/31 00:20:25;;;;;;;13.20;7.78;;;;;;;2.32;100.00;96632.59;5063799;28;20080;-63
2022/01/31 00:22:54;;;;;;;13.43;8.90;;;;;;;2.38;100.00;96638.28;5061043;28;20064;-63
2022/01/31 00:25:22;;;;;;;11.07;7.25;;;;;;;2.51;100.00;96642.75;5063071;28;20290;-63
2022/01/31 00:27:51;;;;;;;13.85;7.22;;;;;;;2.61;100.00;96629.13;5061290;28;20071;-61
2022/01/31 00:30:19;;;;;;;12.07;7.30;;;;;;;2.57;100.00;96630.22;5061640;28;20623;-62
2022/01/31 00:32:48;;;;;;;14.60;7.40;;;;;;;2.53;100.00;96622.69;5058188;28;20083;-61
2022/01/31 00:35:16;;;;;;;13.73;7.15;;;;;;;2.61;100.00;96617.84;5063992;28;20080;-60
2022/01/31 00:37:46;;;;;;;17.88;7.70;;;;;;;2.71;100.00;96624.16;5061670;28;20071;-61
2022/01/31 00:40:15;;;;;;;14.48;7.68;;;;;;;2.83;100.00;96609.59;5061548;28;20652;-59
2022/01/31 00:42:44;;;;;;;10.55;6.70;;;;;;;2.72;100.00;96612.84;5060764;28;20077;-62
2022/01/31 00:45:17;;;;;;;15.43;7.20;;;;;;;2.85;100.00;96600.72;5060875;28;20069;-62
2022/01/31 00:47:48;;;;;;;12.50;7.80;;;;;;;2.84;100.00;96596.47;5060287;28;20088;-61
2022/01/31 00:50:19;;;;;;;17.48;7.93;;;;;;;3.02;100.00;96586.69;5064144;28;20095;-61
2022/01/31 00:52:49;;;;;;;10.77;7.13;;;;;;;3.20;100.00;96595.13;5061540;28;20461;-61
2022/01/31 00:55:18;;;;;;;11.57;7.20;;;;;;;3.18;100.00;96576.16;5062148;28;20079;-62
2022/01/31 00:57:46;;;;;;;15.45;7.43;;;;;;;3.41;100.00;96569.50;5060586;28;20916;-62
2022/01/31 01:00:16;;;;;;;15.90;7.40;;;;;;;3.15;100.00;96571.13;5061838;28;20099;-62
2022/01/31 01:02:45;;;;;;;13.80;6.93;;;;;;;3.38;100.00;96564.47;5061094;28;20076;-62
2022/01/31 01:05:14;;;;;;;16.60;7.55;;;;;;;3.38;100.00;96572.28;5062054;28;20083;-61
2022/01/31 01:07:45;;;;;;;16.63;7.20;;;;;;;3.48;100.00;96562.94;5061445;28;20079;-62
2022/01/31 01:10:16;;;;;;;13.48;7.30;;;;;;;3.18;100.00;96560.50;5062287;28;20076;-63
2022/01/31 01:12:45;;;;;;;15.95;7.55;;;;;;;3.36;100.00;96549.84;5061024;28;20044;-61
2022/01/31 01:15:14;;;;;;;10.55;6.38;;;;;;;3.13;100.00;96548.69;5060190;28;20064;-62
2022/01/31 01:17:43;;;;;;;12.00;6.75;;;;;;;3.10;100.00;96552.34;5058213;28;20093;-62
2022/01/31 01:20:12;;;;;;;12.40;7.25;;;;;;;3.02;100.00;96539.78;5063615;28;20565;-59
2022/01/31 01:22:40;;;;;;;12.20;6.88;;;;;;;3.00;100.00;96539.06;5060928;28;20149;-62
2022/01/31 01:25:09;;;;;;;11.38;6.80;;;;;;;3.02;100.00;96537.19;5060538;28;20064;-61
2022/01/31 01:27:40;;;;;;;10.02;7.05;;;;;;;3.01;100.00;96542.50;5061313;28;20060;-61
2022/01/31 01:30:11;;;;;;;10.82;7.10;;;;;;;3.13;100.00;96528.69;5059623;28;20047;-60
2022/01/31 01:32:48;;;;;;;16.80;7.45;;;;;;;3.12;100.00;96520.97;5058420;28;20072;-61
2022/01/31 01:35:17;;;;;;;17.30;7.10;;;;;;;3.24;100.00;96504.56;5063768;28;20091;-60
2022/01/31 01:37:47;;;;;;;11.85;6.97;;;;;;;3.24;100.00;96515.81;5060967;28;20064;-61
2022/01/31 01:40:15;;;;;;;14.52;6.80;;;;;;;3.12;100.00;96516.59;5060132;28;20064;-62
2022/01/31 01:42:45;;;;;;;16.65;7.63;;;;;;;3.12;100.00;96503.56;5060875;28;20064;-61
2022/01/31 01:45:13;;;;;;;15.00;7.82;;;;;;;3.05;100.00;96489.25;5061834;28;20068;-61
2022/01/31 01:47:42;;;;;;;15.27;6.93;;;;;;;3.17;100.00;96464.22;5061032;28;20059;-61
2022/01/31 01:50:10;;;;;;;8.85;6.57;;;;;;;3.06;100.00;96457.06;5062281;28;20087;-61
2022/01/31 01:52:39;;;;;;;14.07;7.30;;;;;;;3.09;100.00;96443.84;5061564;28;20068;-60
2022/01/31 01:55:08;;;;;;;12.38;7.03;;;;;;;3.27;100.00;96442.66;5061056;28;20064;-62
2022/01/31 01:57:37;;;;;;;12.93;6.97;;;;;;;3.42;100.00;96439.97;5059399;28;20158;-61
2022/01/31 02:00:09;;;;;;;15.15;7.20;;;;;;;3.39;100.00;96443.63;5055928;28;20508;-61
2022/01/31 02:02:37;;;;;;;13.35;7.25;;;;;;;3.34;100.00;96422.25;5061999;28;20091;-61
2022/01/31 02:05:06;;;;;;;17.20;7.00;;;;;;;3.36;100.00;96415.16;5065707;28;20087;-60
2022/01/31 02:07:35;;;;;;;15.38;6.93;;;;;;;3.31;100.00;96417.25;5064550;28;20080;-60
2022/01/31 02:10:06;;;;;;;16.52;7.28;;;;;;;3.52;100.00;96410.59;5063587;28;20063;-59
2022/01/31 02:12:40;;;;;;;;;;;;;;;3.44;100.00;96405.06;5061617;28;20060;-58
2022/01/31 02:15:12;;;;;;;11.35;6.15;;;;;;;3.27;100.00;96385.34;5063950;28;19960;-62
2022/01/31 02:17:40;;;;;;;14.15;6.97;;;;;;;3.55;100.00;96386.09;5062791;28;20080;-61
2022/01/31 02:20:10;;;;;;;13.13;6.82;;;;;;;3.67;100.00;96382.66;5067116;28;20072;-61
2022/01/31 02:22:40;;;;;;;16.17;7.18;;;;;;;3.52;100.00;96376.72;5063138;28;20137;-61
2022/01/31 02:25:12;;;;;;;18.50;8.00;;;;;;;3.53;100.00;96367.94;5064003;28;20068;-59
2022/01/31 02:27:41;;;;;;;13.82;7.28;;;;;;;3.28;100.00;96352.28;5064144;28;20083;-63
2022/01/31 02:30:11;;;;;;;15.23;7.30;;;;;;;3.68;100.00;96345.22;5063813;28;20096;-62
2022/01/31 02:32:40;;;;;;;;;;;;;;;3.60;100.00;96357.09;5064093;28;20075;-61
2022/01/31 02:35:09;;;;;;;14.98;7.32;;;;;;;3.41;100.00;96349.72;5066757;28;19963;-61
2022/01/31 02:37:37;;;;;;;14.63;7.38;;;;;;;3.59;100.00;96338.03;5064463;28;20072;-61
2022/01/31 02:40:08;;;;;;;13.27;7.03;;;;;;;3.89;100.00;96313.34;5063049;28;20471;-60
2022/01/31 02:42:37;;;;;;;11.98;7.38;;;;;;;3.57;100.00;96322.47;5063290;28;20482;-61
2022/01/31 02:45:06;;;;;;;14.45;7.07;;;;;;;3.65;100.00;96321.09;5063575;28;20599;-60
2022/01/31 02:47:39;;;;;;;14.45;7.38;;;;;;;3.65;100.00;96323.72;5064424;28;20079;-61
2022/01/31 02:50:12;;;;;;;11.32;6.78;;;;;;;3.69;100.00;96319.97;5065409;28;20554;-61
2022/01/31 02:52:46;;;;;;;10.88;6.80;;;;;;;3.54;100.00;96307.06;5063203;28;20076;-62
2022/01/31 02:55:17;;;;;;;15.48;6.97;;;;;;;3.40;100.00;96312.34;5064351;28;20064;-61
2022/01/31 02:57:46;;;;;;;14.13;7.50;;;;;;;3.28;100.00;96314.03;5053812;28;20041;-61
2022/01/31 03:00:14;;;;;;;14.05;7.10;;;;;;;3.33;100.00;96303.28;5050180;28;20450;-61
2022/01/31 03:02:43;;;;;;;14.13;7.18;;;;;;;3.06;100.00;96301.63;5062390;28;20068;-61
2022/01/31 03:05:11;;;;;;;16.52;7.38;;;;;;;3.20;100.00;96282.47;5047182;28;20633;-61
2022/01/31 03:07:40;;;;;;;15.02;7.82;;;;;;;3.49;100.00;96277.03;5042713;28;20067;-60
2022/01/31 03:10:09;;;;;;;14.98;6.90;;;;;;;3.48;100.00;96260.56;5042766;28;20068;-61
2022/01/31 03:12:39;;;;;;;13.32;7.35;;;;;;;3.56;100.00;96239.97;5043819;28;21713;-61
2022/01/31 03:15:08;;;;;;;16.73;7.00;;;;;;;3.46;100.00;96235.53;5043239;28;20053;-62
2022/01/31 03:17:37;;;;;;;13.00;7.00;;;;;;;3.40;100.00;96235.94;5043436;28;20108;-62
2022/01/31 03:20:07;;;;;;;15.35;7.55;;;;;;;3.29;100.00;96229.69;5044822;28;20042;-61
2022/01/31 03:22:35;;;;;;;16.52;7.18;;;;;;;3.18;100.00;96234.81;5043857;28;20065;-61
2022/01/31 03:25:04;;;;;;;13.00;7.13;;;;;;;3.48;100.00;96250.13;5040136;28;20136;-61
2022/01/31 03:27:33;;;;;;;10.82;6.57;;;;;;;3.52;100.00;96245.53;5042748;28;20069;-60
2022/01/31 03:30:03;;;;;;;15.88;7.35;;;;;;;3.28;100.00;96235.03;5041720;28;20060;-62
2022/01/31 03:32:31;;;;;;;;;;;;;;;3.06;100.00;96222.59;5046761;28;20081;-61
2022/01/31 03:35:01;;;;;;;15.93;6.95;;;;;;;3.40;100.00;96197.66;5041770;28;20631;-61
2022/01/31 03:37:29;;;;;;;12.77;7.25;;;;;;;3.42;100.00;96195.81;5042375;28;20068;-61
2022/01/31 03:39:58;;;;;;;14.30;7.40;;;;;;;3.45;100.00;96199.97;5039337;28;20084;-60
2022/01/31 03:42:26;;;;;;;13.75;7.57;;;;;;;3.44;100.00;96200.91;5042618;28;20052;-62
2022/01/31 03:44:55;;;;;;;20.40;8.00;;;;;;;3.18;100.00;96180.09;5042341;28;20065;-59
2022/01/31 03:47:25;;;;;;;16.33;7.28;;;;;;;3.24;100.00;96173.63;5045917;28;20088;-61
2022/01/31 03:49:53;;;;;;;12.60;7.80;;;;;;;3.34;100.00;96156.44;5039676;28;20056;-57
2022/01/31 03:52:22;;;;;;;14.63;7.78;;;;;;;3.28;100.00;96139.44;5042343;28;20075;-62
2022/01/31 03:54:50;;;;;;;16.27;6.90;;;;;;;3.29;100.00;96148.91;5041362;28;20076;-63
2022/01/31 03:57:18;;;;;;;15.52;6.93;;;;;;;3.17;100.00;96146.34;5043356;28;20132;-62
2022/01/31 03:59:47;;;;;;;18.10;7.47;;;;;;;3.16;100.00;96123.81;5043412;28;20092;-61
2022/01/31 04:02:15;;;;;;;14.88;7.35;;;;;;;3.37;100.00;96117.09;5066806;28;20080;-61
2022/01/31 04:04:45;;;;;;;13.38;6.88;;;;;;;3.25;100.00;96112.75;5064189;28;20075;-58
2022/01/31 04:07:14;;;;;;;17.13;7.60;;;;;;;3.10;100.00;96106.88;5048829;28;20060;-61
2022/01/31 04:09:42;;;;;;;15.48;7.50;;;;;;;3.08;100.00;96106.13;5042555;28;20533;-61
2022/01/31 04:12:11;;;;;;;15.38;7.50;;;;;;;3.20;100.00;96089.66;5043203;28;20508;-62
2022/01/31 04:14:40;;;;;;;15.80;7.22;;;;;;;2.93;100.00;96099.41;5042233;28;20084;-61
2022/01/31 04:17:13;;;;;;;11.38;6.78;;;;;;;3.14;100.00;96079.66;5044928;28;20085;-61
2022/01/31 04:19:42;;;;;;;12.25;6.85;;;;;;;2.90;100.00;96091.78;5041280;28;20073;-62
2022/01/31 04:22:15;;;;;;;11.18;6.57;;;;;;;3.29;100.00;96077.72;5041747;28;20080;-62
2022/01/31 04:24:47;;;;;;;13.15;6.78;;;;;;;3.14;100.00;96055.38;5042313;28;20068;-62
2022/01/31 04:27:19;;;;;;;15.13;7.25;;;;;;;3.22;100.00;96038.25;5039829;28;20076;-59
2022/01/31 04:29:49;;;;;;;12.23;7.07;;;;;;;3.05;100.00;96057.69;5043312;28;20571;-61
2022/01/31 04:32:17;;;;;;;12.57;6.63;;;;;;;3.28;100.00;96055.22;5045201;28;20088;-58
2022/01/31 04:34:46;;;;;;;13.32;7.00;;;;;;;3.26;100.00;96037.09;5045103;28;20069;-61
2022/01/31 04:37:16;;;;;;;15.02;6.90;;;;;;;3.26;100.00;96046.69;5043101;28;20065;-59
2022/01/31 04:39:45;;;;;;;16.65;7.90;;;;;;;3.36;100.00;96028.59;5041867;28;20041;-62
2022/01/31 04:42:13;;;;;;;14.25;7.28;;;;;;;3.48;100.00;96014.69;5041783;28;20076;-57
2022/01/31 04:44:41;;;;;;;16.67;7.05;;;;;;;3.26;100.00;96002.38;5039787;28;20088;-58
2022/01/31 04:47:10;;;;;;;20.55;7.28;;;;;;;3.37;100.00;95991.16;5044789;28;20084;-59
2022/01/31 04:49:39;;;;;;;16.17;7.38;;;;;;;3.34;100.00;95976.63;5041407;28;20071;-60
2022/01/31 04:52:07;;;;;;;11.68;7.32;;;;;;;3.53;100.00;95963.03;5042366;28;20076;-58
2022/01/31 04:54:37;;;;;;;20.45;7.03;;;;;;;3.56;100.00;95968.03;5042752;28;20068;-60
2022/01/31 04:57:06;;;;;;;11.95;7.43;;;;;;;3.60;100.00;95963.41;5039616;28;20096;-61
2022/01/31 04:59:40;;;;;;;15.85;7.57;;;;;;;3.51;100.00;95976.22;5041467;28;20111;-59
2022/01/31 05:02:09;;;;;;;16.05;7.55;;;;;;;3.44;100.00;95980.22;5044596;28;20084;-61
2022/01/31 05:04:38;;;;;;;18.98;7.10;;;;;;;3.50;100.00;95984.13;5056386;28;20083;-61
2022/01/31 05:07:06;;;;;;;14.00;6.97;;;;;;;3.68;100.00;95974.97;5049126;28;20132;-62
2022/01/31 05:09:35;;;;;;;13.15;6.28;;;;;;;3.74;100.00;95979.69;5039303;28;20072;-61
2022/01/31 05:12:06;;;;;;;14.93;6.90;;;;;;;3.56;100.00;95966.25;5044287;28;20056;-56
2022/01/31 05:14:34;;;;;;;10.20;5.63;;;;;;;3.68;100.00;95954.09;5042768;28;20107;-59
2022/01/31 05:17:03;;;;;;;14.05;6.45;;;;;;;3.47;100.00;95951.28;5045050;28;20080;-59
2022/01/31 05:19:31;;;;;;;15.02;6.45;;;;;;;3.51;100.00;95965.78;5040176;28;20072;-54
2022/01/31 05:22:00;;;;;;;14.77;6.43;;;;;;;3.73;100.00;95948.53;5041817;28;20758;-57
2022/01/31 05:24:29;;;;;;;18.80;6.10;;;;;;;3.81;100.00;95944.38;5041403;28;20067;-59
2022/01/31 05:26:57;;;;;;;10.07;6.20;;;;;;;3.77;100.00;95944.75;5042164;28;20068;-62
2022/01/31 05:29:27;;;;;;;12.05;5.97;;;;;;;3.55;100.00;95945.53;5039817;28;20077;-62
2022/01/31 05:31:55;;;;;;;6.67;5.83;;;;;;;3.64;100.00;95938.78;5042522;28;20069;-61
2022/01/31 05:34:24;;;;;;;11.88;6.22;;;;;;;3.75;100.00;95941.41;5042357;28;20910;-61
2022/01/31 05:36:55;;;;;;;13.23;6.53;;;;;;;3.71;100.00;95943.41;5038590;28;20072;-60
2022/01/31 05:39:24;;;;;;;12.73;6.43;;;;;;;3.69;100.00;95939.28;5041815;28;20072;-62
2022/01/31 05:41:53;;;;;;;14.20;6.32;;;;;;;3.52;100.00;95940.53;5043885;28;20092;-53
2022/01/31 05:44:23;;;;;;;9.25;5.70;;;;;;;3.64;100.00;95933.56;5049887;28;20097;-58
2022/01/31 05:46:55;;;;;;;8.45;5.78;;;;;;;3.41;100.00;95924.88;5066387;28;20076;-60
2022/01/31 05:49:24;;;;;;;12.00;6.40;;;;;;;3.48;100.00;95931.28;5050652;28;20510;-59
2022/01/31 05:51:57;;;;;;;13.93;6.53;;;;;;;3.47;100.00;95933.03;5046096;28;20056;-60
2022/01/31 05:54:26;;;;;;;10.43;6.28;;;;;;;3.38;100.00;95920.72;5045066;28;20065;-60
2022/01/31 05:56:56;;;;;;;9.13;6.10;;;;;;;3.18;100.00;95913.53;5044831;28;20521;-58
2022/01/31 05:59:24;;;;;;;13.95;6.93;;;;;;;3.40;100.00;95920.59;5046882;28;20484;-60
2022/01/31 06:01:54;;;;;;;6.65;5.00;;;;;;;3.30;100.00;95904.78;5045929;28;20615;-63
2022/01/31 06:04:23;;;;;;;12.07;6.53;;;;;;;3.31;100.00;95899.50;5046052;28;20060;-61
2022/01/31 06:06:51;;;;;;;7.90;6.03;;;;;;;3.24;100.00;95890.47;5043885;28;20069;-54
2022/01/31 06:09:23;;;;;;;6.50;5.38;;;;;;;3.14;100.00;95902.50;5040703;28;20086;-57
2022/01/31 06:11:51;;;;;;;9.30;6.28;;;;;;;3.07;100.00;95902.13;5046034;28;20678;-59
2022/01/31 06:14:20;;;;;;;9.23;5.95;;;;;;;3.13;100.00;95900.00;5047485;28;20555;-61
2022/01/31 06:16:48;;;;;;;6.75;5.40;;;;;;;3.12;100.00;95887.94;5045834;28;20060;-61
2022/01/31 06:19:18;;;;;;;8.38;6.40;;;;;;;3.21;100.00;95876.84;5039746;28;20083;-61
2022/01/31 06:21:47;;;;;;;10.47;7.47;;;;;;;3.14;100.00;95868.66;5041722;28;20068;-61
2022/01/31 06:24:15;;;;;;;12.25;6.90;;;;;;;3.21;100.00;95850.78;5044255;28;20479;-59
2022/01/31 06:26:44;;;;;;;11.20;6.75;;;;;;;3.20;100.00;95844.75;5043204;28;20076;-58
2022/01/31 06:29:13;;;;;;;12.63;7.20;;;;;;;3.30;100.00;95837.03;5044204;28;20084;-60
2022/01/31 06:31:41;;;;;;;9.85;7.00;;;;;;;3.20;100.00;95828.25;5045845;28;20069;-59
2022/01/31 06:34:10;;;;;;;13.60;7.28;;;;;;;3.23;100.00;95836.69;5041851;28;20076;-60
2022/01/31 06:36:40;;;;;;;9.65;6.40;;;;;;;3.27;100.00;95838.13;5043330;28;20069;-62
2022/01/31 06:39:08;;;;;;;10.20;7.37;;;;;;;3.22;100.00;95819.41;5047810;28;20068;-61
2022/01/31 06:41:55;;;;;;;8.98;6.88;;;;;;;3.36;100.00;95814.91;5061546;28;20466;-62
2022/01/31 06:44:24;;;;;;;8.98;7.13;;;;;;;3.45;100.00;95814.22;5067252;28;20515;-62
2022/01/31 06:46:52;;;;;;;8.68;6.93;;;;;;;3.29;100.00;95812.78;5063468;28;20092;-63
2022/01/31 06:49:21;;;;;;;8.73;6.05;;;;;;;3.36;100.00;95807.09;5062222;28;20516;-61
2022/01/31 06:51:51;;;;;;;8.63;7.47;;;;;;;3.63;100.00;95804.16;5065564;28;20072;-60
2022/01/31 06:54:19;;;;;;;10.63;6.33;;;;;;;3.44;100.00;95802.97;5062997;28;20068;-59
2022/01/31 06:56:47;;;;;;;11.07;7.03;;;;;;;3.59;100.00;95802.75;5066660;28;20506;-62
2022/01/31 06:59:16;;;;;;;12.20;7.35;;;;;;;3.51;100.00;95788.53;5066880;28;20080;-60
2022/01/31 07:01:44;;;;;;;7.40;6.32;;;;;;;3.69;100.00;95780.25;5065856;28;20103;-61
2022/01/31 07:04:13;;;;;;;9.13;6.78;;;;;;;3.70;100.00;95774.88;5046516;28;20069;-59
2022/01/31 07:06:41;;;;;;;12.57;6.15;;;;;;;3.55;100.00;95770.88;5044492;28;20072;-59
2022/01/31 07:09:12;;;;;;;6.75;5.65;;;;;;;3.65;100.00;95761.41;5045621;28;20068;-58
2022/01/31 07:11:42;;;;;;;5.75;5.15;;;;;;;3.67;100.00;95748.22;5044418;28;20081;-59
2022/01/31 07:14:29;;;;;;;6.78;5.75;;;;;;;3.84;100.00;95741.69;5046596;28;20084;-61
2022/01/31 07:16:59;;;;;;;7.35;5.40;;;;;;;3.68;100.00;95726.41;5041753;28;20065;-61
2022/01/31 07:19:30;;;;;;;11.50;6.23;;;;;;;3.84;100.00;95721.66;5042172;28;20076;-59
2022/01/31 07:21:59;;;;;;;7.95;4.82;;;;;;;3.87;100.00;95726.63;5042015;28;20064;-59
2022/01/31 07:24:43;;;;;;;12.25;5.47;;;;;;;3.99;100.00;95723.06;5044126;28;20543;-58
2022/01/31 07:27:12;;;;;;;11.27;5.45;;;;;;;4.02;100.00;95703.69;5044561;28;20734;-60
2022/01/31 07:29:40;;;;;;;7.40;5.45;;;;;;;3.96;100.00;95689.41;5043903;28;20096;-61
2022/01/31 07:32:10;;;;;;;5.38;4.88;;;;;;;4.16;100.00;95687.75;5045829;28;20079;-58
2022/01/31 07:34:40;;;;;;;9.53;5.20;;;;;;;4.13;100.00;95679.34;5043828;28;20083;-61
2022/01/31 07:37:10;;;;;;;7.15;5.32;;;;;;;4.13;100.00;95671.53;5045728;28;20067;-60
2022/01/31 07:39:41;;;;;;;10.73;6.20;;;;;;;4.36;100.00;95657.44;5045135;28;20519;-61
2022/01/31 07:42:10;;;;;;;11.77;4.88;;;;;;;4.27;100.00;95651.22;5043903;28;20069;-60
2022/01/31 07:44:38;;;;;;;5.43;4.43;;;;;;;4.31;100.00;95653.56;5039784;28;20107;-57
2022/01/31 07:47:08;;;;;;;8.57;4.55;;;;;;;4.27;100.00;95651.22;5067789;28;20502;-60
2022/01/31 07:49:36;;;;;;;8.40;5.13;;;;;;;4.41;100.00;95649.25;5044289;28;20479;-59
2022/01/31 07:52:05;;;;;;;6.80;5.28;;;;;;;4.53;100.00;95643.81;5042202;28;20084;-60
2022/01/31 07:54:33;;;;;;;10.55;5.32;;;;;;;4.60;100.00;95640.69;5045004;28;20099;-57
2022/01/31 07:57:04;;;;;;;5.28;4.43;;;;;;;4.82;100.00;95630.13;5041050;28;20172;-60
2022/01/31 07:59:52;;;;;;;8.13;4.75;;;;;;;4.80;100.00;95605.91;5040023;28;20073;-56
2022/01/31 08:02:21;;;;;;;8.25;4.28;;;;;;;4.78;100.00;95597.34;5040857;28;20638;-62
2022/01/31 08:04:54;;;;;;;7.05;4.40;;;;;;;4.61;100.00;95592.75;5039532;28;20085;-59
2022/01/31 08:07:23;;;;;;;6.07;4.50;;;;;;;4.76;100.00;95602.72;5044865;28;20068;-61
2022/01/31 08:09:52;;;;;;;8.85;5.03;;;;;;;4.88;100.00;95598.22;5039480;28;20072;-60
2022/01/31 08:12:23;;;;;;;5.50;4.68;;;;;;;4.72;100.00;95595.28;5034618;28;20072;-60
2022/01/31 08:14:52;;;;;;;7.55;4.80;;;;;;;5.05;100.00;95586.34;5047972;28;20077;-60
2022/01/31 08:17:21;;;;;;;4.30;3.85;;;;;;;5.06;100.00;95577.56;5066937;28;20068;-61
2022/01/31 08:19:49;;;;;;;6.32;4.80;;;;;;;5.25;100.00;95587.22;5044508;28;20078;-61
2022/01/31 08:22:18;;;;;;;8.18;4.28;;;;;;;4.89;100.00;95594.69;5045138;28;20060;-61
2022/01/31 08:24:46;;;;;;;6.00;4.45;;;;;;;4.92;100.00;95581.38;5040760;28;20064;-61
2022/01/31 08:27:15;;;;;;;4.40;4.00;;;;;;;4.92;100.00;95589.19;5049805;28;20698;-59
2022/01/31 08:29:45;;;;;;;5.40;4.30;;;;;;;4.82;100.00;95563.97;5061645;28;20076;-60
2022/01/31 08:32:18;;;;;;;5.90;5.00;;;;;;;4.75;100.00;95587.19;5066882;28;20091;-59
2022/01/31 08:37:37;;;;;;;5.07;4.30;;;;;;;4.79;100.00;95600.81;5059287;28;20068;-60
2022/01/31 08:40:07;;;;;;;6.57;4.45;;;;;;;4.82;100.00;95593.56;5045107;28;20065;-58
2022/01/31 08:42:36;;;;;;;5.18;4.68;;;;;;;4.71;100.00;95580.56;5042319;28;20061;-60
2022/01/31 08:45:08;;;;;;;4.78;4.35;;;;;;;4.48;100.00;95577.31;5045074;28;20100;-61
2022/01/31 08:47:40;;;;;;;5.57;4.90;;;;;;;4.40;100.00;95566.66;5037926;28;20089;-60
2022/01/31 08:50:09;;;;;;;9.88;5.00;;;;;;;4.36;100.00;95579.13;5040810;28;20096;-60
2022/01/31 08:52:38;;;;;;;5.90;4.65;;;;;;;4.39;100.00;95591.94;5050326;28;20110;-60
2022/01/31 08:55:09;;;;;;;5.93;5.32;;;;;;;4.18;100.00;95565.03;5062589;28;20065;-59
2022/01/31 08:57:37;;;;;;;6.05;5.15;;;;;;;4.23;100.00;95540.22;5062783;28;20071;-59
2022/01/31 09:00:08;;;;;;;9.80;4.80;;;;;;;4.27;100.00;95564.28;5041156;28;20076;-61
2022/01/31 09:02:40;;;;;;;6.25;5.63;;;;;;;4.28;100.00;95566.75;5039545;28;20081;-60
2022/01/31 09:05:09;;;;;;;9.50;5.60;;;;;;;4.37;100.00;95564.31;5043530;28;20076;-64
2022/01/31 09:07:38;;;;;;;6.35;4.80;;;;;;;4.26;100.00;95547.75;5042406;28;20079;-60
2022/01/31 09:10:07;;;;;;;5.57;4.82;;;;;;;4.08;100.00;95558.91;5042580;28;20068;-57
2022/01/31 09:12:36;;;;;;;10.05;4.70;;;;;;;4.11;100.00;95554.25;5043081;28;20540;-61
2022/01/31 09:15:07;;;;;;;6.35;4.45;;;;;;;4.06;100.00;95532.97;5049793;28;20123;-59
2022/01/31 09:17:37;;;;;;;9.02;4.55;;;;;;;4.19;100.00;95545.78;5047787;28;20080;-61
2022/01/31 09:20:07;;;;;;;6.40;4.53;;;;;;;4.19;100.00;95546.63;5068181;28;20564;-60
2022/01/31 09:22:35;;;;;;;6.20;5.60;;;;;;;4.26;100.00;95539.09;5065029;28;20076;-58
2022/01/31 09:25:04;;;;;;;5.07;4.47;;;;;;;4.40;100.00;95535.34;5064106;28;20067;-60
2022/01/31 09:27:33;;;;;;;8.60;5.30;;;;;;;4.36;100.00;95547.81;5065849;28;20060;-58
2022/01/31 09:30:02;;;;;;;6.63;5.00;;;;;;;4.23;100.00;95527.16;5060527;28;20065;-60
2022/01/31 09:32:32;;;;;;;6.75;4.85;;;;;;;4.39;100.00;95534.50;5047917;28;20460;-59
2022/01/31 09:35:00;;;;;;;5.00;4.45;;;;;;;4.33;100.00;95523.75;5065447;28;21531;-61
2022/01/31 09:37:29;;;;;;;6.68;4.82;;;;;;;4.22;100.00;95517.66;5051402;28;20068;-61
2022/01/31 09:40:03;;;;;;;5.03;4.55;;;;;;;4.16;100.00;95530.41;5046018;28;20072;-61
2022/01/31 09:42:37;;;;;;;4.70;4.20;;;;;;;4.23;100.00;95541.97;5041274;28;20071;-60
2022/01/31 09:45:14;;;;;;;6.45;4.85;;;;;;;4.40;100.00;95535.34;5043947;28;20065;-60
2022/01/31 09:50:33;;;;;;;5.82;5.22;;;;;;;4.39;100.00;95558.00;5053803;28;20091;-60
2022/01/31 09:53:01;;;;;;;5.68;4.20;;;;;;;4.29;100.00;95536.25;5049062;28;20297;-55
2022/01/31 09:55:30;;;;;;;5.15;4.20;;;;;;;4.24;100.00;95546.25;5063137;28;20060;-60
2022/01/31 09:57:59;;;;;;;5.38;4.25;;;;;;;4.25;100.00;95543.50;5065153;28;20072;-57
2022/01/31 10:00:34;;;;;;;4.57;4.18;;;;;;;4.40;100.00;95566.66;5064286;28;20064;-61
2022/01/31 10:03:07;;;;;;;4.95;4.07;;;;;;;4.34;100.00;95565.41;5066989;28;20068;-60
2022/01/31 10:05:37;;;;;;;5.50;4.20;;;;;;;4.33;100.00;95558.50;5065268;28;20087;-60
2022/01/31 10:08:12;;;;;;;5.47;4.35;;;;;;;4.50;100.00;95552.69;5065841;28;20092;-60
2022/01/31 10:10:43;;;;;;;4.57;4.18;;;;;;;4.48;100.00;95549.41;5067333;28;20060;-55
2022/01/31 10:16:28;;;;;;;4.30;3.90;;;;;;;4.28;100.00;95545.84;5064905;28;20060;-62
2022/01/31 10:19:02;;;;;;;3.90;3.60;;;;;;;4.36;100.00;95533.94;5054030;28;20069;-59
2022/01/31 10:21:31;;;;;;;4.50;4.07;;;;;;;4.24;100.00;95554.09;5045055;28;20545;-61
2022/01/31 10:23:59;;;;;;;4.00;3.67;;;;;;;4.39;100.00;95568.44;5044883;28;20061;-59
2022/01/31 10:26:30;;;;;;;3.83;3.53;;;;;;;4.39;100.00;95570.22;5050011;28;20081;-60
2022/01/31 10:29:14;;;;;;;4.40;3.65;;;;;;;4.36;100.00;95566.09;5045222;28;20115;-59
2022/01/31 10:31:54;;;;;;;3.90;3.60;;;;;;;4.24;100.00;95570.56;5040273;28;20072;-59
2022/01/31 10:34:30;;;;;;;4.63;4.22;;;;;;;4.31;100.00;95551.78;5045391;28;20072;-61
2022/01/31 10:37:03;;;;;;;4.25;3.95;;;;;;;4.46;100.00;95559.13;5056700;28;20072;-60
2022/01/31 10:54:11;;;;;;;4.60;4.30;;;;;;;4.94;100.00;95545.47;5041511;28;20545;-60
2022/01/31 10:56:41;;;;;;;3.65;3.38;;;;;;;5.03;100.00;95540.44;5065949;28;20147;-59
2022/01/31 10:59:11;;;;;;;4.18;3.60;;;;;;;5.05;100.00;95523.63;5067813;28;20476;-61
2022/01/31 11:01:42;;;;;;;3.50;3.20;;;;;;;5.31;100.00;95536.22;5047677;28;20593;-61
2022/01/31 11:04:31;;;;;;;3.30;3.10;;;;;;;5.16;100.00;95533.13;5046260;28;20079;-60
2022/01/31 11:07:03;;;;;;;3.65;3.35;;;;;;;5.18;100.00;95533.84;5042725;28;20483;-61
2022/01/31 11:09:32;;;;;;;3.90;3.60;;;;;;;5.07;100.00;95523.50;5047420;28;20118;-59
2022/01/31 11:12:01;;;;;;;3.42;3.13;;;;;;;5.37;100.00;95528.66;5060420;28;20068;-60
2022/01/31 11:14:30;;;;;;;3.85;3.55;;;;;;;5.74;100.00;95516.69;5048896;28;20073;-55
2022/01/31 11:16:58;;;;;;;3.30;3.10;;;;;;;5.80;100.00;95524.00;5044698;28;20080;-60
2022/01/31 11:19:32;;;;;;;3.10;2.90;;;;;;;5.85;100.00;95532.25;5044948;28;20149;-61
2022/01/31 11:22:05;;;;;;;4.00;2.90;;;;;;;5.87;100.00;95523.31;5042634;28;20151;-61
2022/01/31 11:24:38;;;;;;;3.40;3.10;;;;;;;5.88;100.00;95531.97;5045438;28;20068;-61
2022/01/31 11:27:09;;;;;;;3.28;3.00;;;;;;;5.70;100.00;95526.59;5039194;28;20069;-58
2022/01/31 11:29:42;;;;;;;3.42;3.13;;;;;;;5.74;100.00;95543.69;5038370;28;20083;-60
2022/01/31 11:32:11;;;;;;;3.28;3.08;;;;;;;5.80;100.00;95545.75;5066814;28;20084;-57
2022/01/31 11:34:41;;;;;;;3.28;3.08;;;;;;;5.73;100.00;95539.41;5062265;28;20103;-59
2022/01/31 11:37:13;;;;;;;3.00;2.80;;;;;;;5.61;100.00;95535.28;5064788;28;20090;-59
2022/01/31 11:39:44;;;;;;;2.97;2.78;;;;;;;5.66;100.00;95525.25;5053616;28;20089;-58
2022/01/31 11:42:13;;;;;;;3.38;3.17;;;;;;;5.72;100.00;95533.38;5035462;28;20073;-58
2022/01/31 11:44:49;;;;;;;3.47;3.17;;;;;;;5.63;100.00;95513.25;5041112;28;20080;-60
2022/01/31 11:47:22;;;;;;;3.55;3.25;;;;;;;5.34;100.00;95509.81;5038646;28;20140;-60
2022/01/31 11:49:53;;;;;;;2.70;2.60;;;;;;;5.50;100.00;95517.09;5042977;28;20068;-60
2022/01/31 11:52:24;;;;;;;3.05;2.85;;;;;;;5.48;100.00;95517.25;5045282;28;20040;-57
2022/01/31 11:54:53;;;;;;;;;;;;;;;5.25;100.00;95506.22;5054014;28;20080;-59
2022/01/31 11:57:23;;;;;;;3.30;3.03;;;;;;;5.38;100.00;95514.63;5057731;28;19960;-56
2022/01/31 11:59:52;;;;;;;3.05;2.85;;;;;;;5.31;100.00;95521.34;5036978;28;20080;-60
2022/01/31 12:02:22;;;;;;;3.10;2.90;;;;;;;5.49;100.00;95513.66;5045159;28;20099;-61
2022/01/31 12:04:53;;;;;;;5.03;3.33;;;;;;;5.38;100.00;95503.34;5042861;28;20080;-59